Ana Sayfa
METAR-TAF:

METAR-TAF

Havaalanları :

Sir Seretse Khama Uluslararası Havalimanı

Gaborone, Botsvana

Enlem: 24-13S, Boylam: 025-55E, yükseklik: 1005 m

Güncel hava durumu gözlemi

Rapor saat 19:00 UTC de 58 dakika önce yapıldı.
Rüzgar kuzeydan 2 kt
Sıcaklık 17°C
Nem 48%
Basınç 1030 hPa
Görüş mesafesi 10 km veya daha fazla
1500 m altında bulut yok ve kümülonimbus yok

METAR: FBSK 211900Z 01002KT CAVOK 17/06 Q1030 NOSIG

Saat: 21:58 (19:58 UTC)

Tahmin

Rapor saat 16:00 UTC de 3 saat ve 58 dakika önce yapıldı.
Ayın 21'si saat 18 UTC'den ayın 22'si saat 24 UTC'ye kadar geçerli Tahmin
Rüzgar kuzey/kuzeydoğudan 8 kt
Görüş mesafesi 10 km veya daha fazla
1500 m altında bulut yok ve kümülonimbus yok

TAF: FBSK 211600Z 2118/2224 03008KT CAVOK

4.000'den fazla havaalanı için hava durumu gözlemleri ve tahminleri (METAR ve TAF raporları).

Kullanılabilir istasyonlar harita üzerinde sarı ve kırmızı noktalarla gösterilir.

İstasyonun adını görmek için fareyi noktanın üzerinde gezdirin.

Sonrasında hava gözlem ve tahminlerini görmek için tıklayın.

Haritayı değiştirmek için: yaklaştırmak için siyah artı işaretli yeşil düğmeye ve uzaklaştırmak için de eksi işaretli düğmeye hızla tıklayın; bitişik haritalar için yeşil okları kullanın.


METAR-TAF: